Empire State — WDE4431 — position and weather

sailwx.info

Track history (hours):
 
Tides and Currents Weather Stations Pressure Air Temp Water Temp Dewpoint Dewpoint Depression Visibility Wind Speed Wind Dir Waves Ship Positions

Empire State

Owner: Crowley Petroleum Services, Jacksonville, FL. More information available from US FCC via Universal Licensing System and Coast Guard Vessel Documentation Center.

Last reported at 2014-Nov-11 18:33 UTC. Time now 2014-Nov-24 00:13 UTC.
Position N 32°31' W 117°36'.
Warning: this ship's position is 12 days out of date.

Length 183 m; draft 10 m.

Type: Military. MMSI: 367353080.

Date/timePositionNaut miles runAvg speedWind from/ knotsBaromVisibWave heightAir tempDewpointWater temp
2014-Nov-11 18:33N 32°31' W 117°36'1212.1
2014-Nov-11 17:33N 32°35' W 117°22'9 9.3
2014-Nov-11 16:33N 32°41' W 117°14'1 1.0
2014-Nov-11 15:31N 32°42' W 117°14'0 0.0
2014-Nov-11 14:31N 32°42' W 117°14'0 0.0
2014-Nov-11 13:31N 32°42' W 117°14'0 0.0
2014-Nov-11 12:28N 32°42' W 117°14'0 0.0
2014-Nov-11 11:31N 32°42' W 117°14'0 0.0
2014-Nov-11 10:31N 32°42' W 117°14'0 0.0
2014-Nov-11 09:31N 32°42' W 117°14'0 0.0
2014-Nov-11 08:22N 32°42' W 117°14'0 0.0
2014-Nov-11 07:31N 32°42' W 117°14'0 0.0
2014-Nov-11 06:19N 32°42' W 117°14'0 0.0
2014-Nov-11 05:25N 32°42' W 117°14'0 0.0
2014-Nov-11 04:31N 32°42' W 117°14'0 0.0
2014-Nov-11 03:31N 32°42' W 117°14'0 0.0
2014-Nov-11 00:16N 32°42' W 117°14'0 0.0
2014-Nov-10 23:07N 32°42' W 117°14'0 0.0
2014-Nov-10 22:25N 32°42' W 117°14'0 0.0
2014-Nov-10 21:31N 32°42' W 117°14'0 0.0
2014-Nov-10 20:31N 32°42' W 117°14'0 0.0
2014-Nov-10 17:31N 32°42' W 117°14'0 0.0
2014-Nov-10 16:25N 32°42' W 117°14'0 0.0
2014-Nov-10 15:25N 32°42' W 117°14'0 0.0
2014-Nov-10 14:31N 32°42' W 117°14'0 0.0
2014-Nov-10 13:31N 32°42' W 117°14'0 0.0
2014-Nov-10 12:31N 32°42' W 117°14'0 0.0
2014-Nov-10 11:31N 32°42' W 117°14'0 0.0
2014-Nov-10 10:25N 32°42' W 117°14'0 0.0
2014-Nov-10 09:31N 32°42' W 117°14'0 0.0
2014-Nov-10 08:31N 32°42' W 117°14'0 0.0
2014-Nov-10 07:25N 32°42' W 117°14'0 0.0
2014-Nov-10 06:31N 32°42' W 117°14'0 0.0
2014-Nov-10 05:31N 32°42' W 117°14'0 0.0
2014-Nov-10 04:31N 32°42' W 117°14'0 0.0
2014-Nov-10 03:25N 32°42' W 117°14'0 0.0
2014-Nov-09 23:19N 32°42' W 117°14'0 0.0
2014-Nov-09 22:31N 32°42' W 117°14'0 0.0
2014-Nov-09 21:31N 32°42' W 117°14'0 0.0
2014-Nov-09 20:31N 32°42' W 117°14'0 0.0
2014-Nov-09 19:31N 32°42' W 117°14'0 0.0
2014-Nov-09 18:25N 32°42' W 117°14'0 0.0
2014-Nov-09 17:25N 32°42' W 117°14'0 0.0
2014-Nov-09 16:31N 32°42' W 117°14'0 0.0
2014-Nov-09 15:31N 32°42' W 117°14'1 0.7
2014-Nov-09 14:33N 32°41' W 117°14'5 4.8
2014-Nov-09 13:33N 32°37' W 117°16'8 8.4
2014-Nov-09 12:33N 32°38' W 117°26'8 8.4
2014-Nov-09 11:33N 32°39' W 117°36'7 7.1
2014-Nov-09 10:33N 32°42' W 117°43'8 8.1
2014-Nov-09 09:33N 32°48' W 117°50'8 8.4
2014-Nov-09 08:33N 32°56' W 117°54'4 3.7
2014-Nov-09 07:33N 32°59' W 117°56'1 0.6
2014-Nov-09 06:33N 32°59' W 117°56'1 0.5
2014-Nov-09 05:33N 32°60' W 117°56'0 0.5
2014-Nov-09 04:33N 33°00' W 117°56'1 0.8
2014-Nov-09 03:33N 33°01' W 117°56'1 0.9
2014-Nov-09 02:33N 33°02' W 117°57'1 1.0
2014-Nov-09 01:33N 33°03' W 117°57'1 0.9
2014-Nov-09 00:33N 33°04' W 117°57'7 7.2
2014-Nov-08 23:34N 33°10' W 118°01'1413.7
2014-Nov-08 22:33N 33°23' W 118°08'1413.7
2014-Nov-08 21:33N 33°36' W 118°13'9 8.8
2014-Nov-08 20:33N 33°44' W 118°16'0 0.2
2014-Nov-08 19:32N 33°44' W 118°16'0 0.0
2014-Nov-08 18:32N 33°44' W 118°16'0 0.0
2014-Nov-08 17:32N 33°44' W 118°16'0 0.0
2014-Nov-08 16:32N 33°44' W 118°16'0 0.0
2014-Nov-08 15:32N 33°44' W 118°16'0 0.0
2014-Nov-08 14:32N 33°44' W 118°16'0 0.0
2014-Nov-08 13:32N 33°44' W 118°16'0 0.0
2014-Nov-08 12:32N 33°44' W 118°16'0 0.0
2014-Nov-08 11:32N 33°44' W 118°16'0 0.0
2014-Nov-08 10:32N 33°44' W 118°16'0 0.0
2014-Nov-08 09:32N 33°44' W 118°16'0 0.0
2014-Nov-08 08:32N 33°44' W 118°16'0 0.0
2014-Nov-08 07:32N 33°44' W 118°16'0 0.0
2014-Nov-08 03:32N 33°44' W 118°16'0 0.0
2014-Nov-08 01:20N 33°44' W 118°16'0 0.0
2014-Nov-08 00:32N 33°44' W 118°16'0 0.0
2014-Nov-07 15:32N 33°44' W 118°16'0 0.0
2014-Nov-07 14:32N 33°44' W 118°16'1 1.5
2014-Nov-07 13:34N 33°43' W 118°15'5 5.4
2014-Nov-07 12:34N 33°44' W 118°09'0 0.1
2014-Nov-07 11:33N 33°44' W 118°09'0 0.1
2014-Nov-07 10:33N 33°44' W 118°09'0 0.0
2014-Nov-07 09:33N 33°44' W 118°09'0 0.0
2014-Nov-07 08:33N 33°44' W 118°09'0 0.0
2014-Nov-07 07:33N 33°44' W 118°09'0 0.1
2014-Nov-07 06:33N 33°44' W 118°09'0 0.1
2014-Nov-07 05:33N 33°44' W 118°09'0 0.0
2014-Nov-07 04:33N 33°44' W 118°09'0 0.2
2014-Nov-07 03:33N 33°44' W 118°09'0 0.0
2014-Nov-07 02:33N 33°44' W 118°09'0 0.0
2014-Nov-07 01:33N 33°44' W 118°09'0 0.1
2014-Nov-07 00:33N 33°44' W 118°09'0 0.0
2014-Nov-06 23:33N 33°44' W 118°09'0 0.0
2014-Nov-06 22:33N 33°44' W 118°09'0 0.0
2014-Nov-06 21:33N 33°44' W 118°09'0 0.0
2014-Nov-06 20:33N 33°44' W 118°09'0 0.0
2014-Nov-06 19:33N 33°44' W 118°09'0 0.0
2014-Nov-06 18:33N 33°44' W 118°09'0 0.1
2014-Nov-06 17:33N 33°44' W 118°09'0 0.1
2014-Nov-06 16:33N 33°44' W 118°09'0 0.0
2014-Nov-06 15:33N 33°44' W 118°09'0 0.0
2014-Nov-06 14:33N 33°44' W 118°09'0 0.1
2014-Nov-06 13:33N 33°44' W 118°09'0 0.0
2014-Nov-06 12:33N 33°44' W 118°09'0 0.0
2014-Nov-06 11:33N 33°44' W 118°09'0 0.0
2014-Nov-06 10:33N 33°44' W 118°09'0 0.0
2014-Nov-06 09:33N 33°44' W 118°09'0 0.0
2014-Nov-06 08:33N 33°44' W 118°09'0 0.0
2014-Nov-06 07:33N 33°44' W 118°09'0 0.1
2014-Nov-06 06:33N 33°44' W 118°09'0 0.1
2014-Nov-06 05:33N 33°44' W 118°09'0 0.1
2014-Nov-06 04:33N 33°44' W 118°09'0 0.1
2014-Nov-06 03:33N 33°44' W 118°09'0 0.0
2014-Nov-06 02:33N 33°44' W 118°09'0 0.1
2014-Nov-06 01:33N 33°44' W 118°09'0 0.0
2014-Nov-06 00:33N 33°44' W 118°09'0 0.0
2014-Nov-05 23:33N 33°44' W 118°09'0 0.1
2014-Nov-05 22:33N 33°44' W 118°09'0 0.0
2014-Nov-05 21:33N 33°44' W 118°09'0 0.0
2014-Nov-05 20:33N 33°44' W 118°09'0 0.1
2014-Nov-05 19:33N 33°44' W 118°09'0 0.0
2014-Nov-05 18:33N 33°44' W 118°09'0 0.1
2014-Nov-05 17:33N 33°44' W 118°09'0 0.1
2014-Nov-05 16:33N 33°44' W 118°09'0 0.1
2014-Nov-05 15:33N 33°44' W 118°09'0 0.0
2014-Nov-05 14:33N 33°44' W 118°09'0 0.1
2014-Nov-05 13:33N 33°44' W 118°09'0 0.0
2014-Nov-05 12:33N 33°44' W 118°09'0 0.1
2014-Nov-05 11:33N 33°44' W 118°09'0 0.1
2014-Nov-05 10:33N 33°44' W 118°09'0 0.0
2014-Nov-05 09:33N 33°44' W 118°09'0 0.0
2014-Nov-05 08:30N 33°44' W 118°09'0 0.1
2014-Nov-05 07:33N 33°44' W 118°09'0 0.1
2014-Nov-05 06:33N 33°44' W 118°09'0 0.1
2014-Nov-05 05:33N 33°44' W 118°09'0 0.0
2014-Nov-05 04:33N 33°44' W 118°09'0 0.1
2014-Nov-05 03:33N 33°44' W 118°09'0 0.1
2014-Nov-05 02:33N 33°44' W 118°09'0 0.0
2014-Nov-05 01:33N 33°44' W 118°09'0 0.0
2014-Nov-05 00:30N 33°44' W 118°09'0 0.1
2014-Nov-04 23:33N 33°44' W 118°09'0 0.0
2014-Nov-04 22:33N 33°44' W 118°09'0 0.1
2014-Nov-04 21:33N 33°44' W 118°09'0 0.1
2014-Nov-04 20:33N 33°44' W 118°09'0 0.1
2014-Nov-04 19:33N 33°44' W 118°09'0 0.1
2014-Nov-04 18:33N 33°44' W 118°09'0 0.1
2014-Nov-04 17:30N 33°44' W 118°09'0 0.1
2014-Nov-04 16:33N 33°44' W 118°09'0 0.1
2014-Nov-04 15:33N 33°44' W 118°09'0 0.0
2014-Nov-04 14:33N 33°44' W 118°09'0 0.1
2014-Nov-04 13:33N 33°44' W 118°09'0 0.0
2014-Nov-04 12:33N 33°44' W 118°09'0 0.0
2014-Nov-04 11:33N 33°44' W 118°09'0 0.1
2014-Nov-04 10:33N 33°44' W 118°09'0 0.1
2014-Nov-04 09:33N 33°44' W 118°09'0 0.0
2014-Nov-04 08:33N 33°44' W 118°09'0 0.0
2014-Nov-04 07:33N 33°44' W 118°09'0 0.0
2014-Nov-04 06:33N 33°44' W 118°09'0 0.0
2014-Nov-04 05:33N 33°44' W 118°09'0 0.1
2014-Nov-04 04:33N 33°44' W 118°09'0 0.2
2014-Nov-04 03:33N 33°44' W 118°09'0 0.0
2014-Nov-04 02:33N 33°44' W 118°09'0 0.0
2014-Nov-04 01:33N 33°44' W 118°09'0 0.0
2014-Nov-04 00:33N 33°44' W 118°09'0 0.1
2014-Nov-03 23:33N 33°44' W 118°09'0 0.1
2014-Nov-03 22:33N 33°44' W 118°09'0 0.0
2014-Nov-03 21:33N 33°44' W 118°09'0 0.0
2014-Nov-03 20:33N 33°44' W 118°09'0 0.1
2014-Nov-03 19:33N 33°44' W 118°09'0 0.0
2014-Nov-03 19:06N 33°44' W 118°09'0 0.1
2014-Nov-03 18:33N 33°44' W 118°09'0 0.0
2014-Nov-03 18:12N 33°44' W 118°09'0 0.0
2014-Nov-03 17:48N 33°44' W 118°09'0 0.0
2014-Nov-03 17:30N 33°44' W 118°09'0 0.0
2014-Nov-03 16:33N 33°44' W 118°09'0 0.1
2014-Nov-03 14:33N 33°44' W 118°09'0 0.1
2014-Nov-03 13:33N 33°44' W 118°09'0 0.0
2014-Nov-03 12:33N 33°44' W 118°09'0 0.0
2014-Nov-03 11:33N 33°44' W 118°09'0 0.1
2014-Nov-03 10:33N 33°44' W 118°09'0 0.0
2014-Nov-03 09:30N 33°44' W 118°09'0 0.1
2014-Nov-03 08:33N 33°44' W 118°09'0 0.1
2014-Nov-03 07:33N 33°44' W 118°09'0 0.0
2014-Nov-03 06:33N 33°44' W 118°09'0 0.1
2014-Nov-03 05:33N 33°44' W 118°09'0 0.1
2014-Nov-03 04:33N 33°44' W 118°09'0 0.0
2014-Nov-03 03:33N 33°44' W 118°09'0 0.0
2014-Nov-03 01:30N 33°44' W 118°09'0 0.0
2014-Nov-03 00:30N 33°44' W 118°09'0 0.1
2014-Nov-02 23:33N 33°44' W 118°09'0 0.0
2014-Nov-02 22:33N 33°44' W 118°09'0 0.1
2014-Nov-02 21:33N 33°44' W 118°09'0 0.1
2014-Nov-02 20:33N 33°44' W 118°09'0 0.0
2014-Nov-02 19:33N 33°44' W 118°09'0 0.1
2014-Nov-02 18:33N 33°44' W 118°09'0 0.0
2014-Nov-02 17:33N 33°44' W 118°09'0 0.1
2014-Nov-02 16:33N 33°44' W 118°09'0 0.0
2014-Nov-02 15:30N 33°44' W 118°09'0 0.1
2014-Nov-02 14:33N 33°44' W 118°09'0 0.0
2014-Nov-02 13:33N 33°44' W 118°09'0 0.0
2014-Nov-02 12:33N 33°44' W 118°09'0 0.0
2014-Nov-02 11:33N 33°44' W 118°09'0 0.1
2014-Nov-02 10:33N 33°44' W 118°09'0 0.1
2014-Nov-02 09:33N 33°44' W 118°09'0 0.1
2014-Nov-02 08:33N 33°44' W 118°09'0 0.1
2014-Nov-02 07:33N 33°44' W 118°09'0 0.1
2014-Nov-02 06:33N 33°44' W 118°09'0 0.0
2014-Nov-02 05:33N 33°44' W 118°09'0 0.1
2014-Nov-02 04:33N 33°44' W 118°09'0 0.0
2014-Nov-02 03:33N 33°44' W 118°09'0 0.0
2014-Nov-02 02:33N 33°44' W 118°09'0 0.0
2014-Nov-02 01:33N 33°44' W 118°09'0 0.0
2014-Nov-02 00:33N 33°44' W 118°09'0 0.0
2014-Nov-01 23:33N 33°44' W 118°09'0 0.0
2014-Nov-01 22:33N 33°44' W 118°09'0 0.0
2014-Nov-01 21:33N 33°44' W 118°09'0 0.0
2014-Nov-01 20:33N 33°44' W 118°09'0 0.1
2014-Nov-01 19:33N 33°44' W 118°09'0 0.0
2014-Nov-01 18:33N 33°44' W 118°09'  
Track history (hours):
 
Tides and Currents Weather Stations Pressure Air Temp Water Temp Dewpoint Dewpoint Depression Visibility Wind Speed Wind Dir Waves Ship Positions

Empire State

Owner: Crowley Petroleum Services, Jacksonville, FL. More information available from US FCC via Universal Licensing System and Coast Guard Vessel Documentation Center.

Last reported at 2014-Nov-11 18:33 UTC. Time now 2014-Nov-24 00:13 UTC.
Position N 32°31' W 117°36'.
Warning: this ship's position is 12 days out of date.

Length 183 m; draft 10 m.

Type: Military. MMSI: 367353080.

Date/timePositionNaut miles runAvg speedWind from/ knotsBaromVisibWave heightAir tempDewpointWater temp
2014-Nov-11 18:33N 32°31' W 117°36'1212.1
2014-Nov-11 17:33N 32°35' W 117°22'9 9.3
2014-Nov-11 16:33N 32°41' W 117°14'1 1.0
2014-Nov-11 15:31N 32°42' W 117°14'0 0.0
2014-Nov-11 14:31N 32°42' W 117°14'0 0.0
2014-Nov-11 13:31N 32°42' W 117°14'0 0.0
2014-Nov-11 12:28N 32°42' W 117°14'0 0.0
2014-Nov-11 11:31N 32°42' W 117°14'0 0.0
2014-Nov-11 10:31N 32°42' W 117°14'0 0.0
2014-Nov-11 09:31N 32°42' W 117°14'0 0.0
2014-Nov-11 08:22N 32°42' W 117°14'0 0.0
2014-Nov-11 07:31N 32°42' W 117°14'0 0.0
2014-Nov-11 06:19N 32°42' W 117°14'0 0.0
2014-Nov-11 05:25N 32°42' W 117°14'0 0.0
2014-Nov-11 04:31N 32°42' W 117°14'0 0.0
2014-Nov-11 03:31N 32°42' W 117°14'0 0.0
2014-Nov-11 00:16N 32°42' W 117°14'0 0.0
2014-Nov-10 23:07N 32°42' W 117°14'0 0.0
2014-Nov-10 22:25N 32°42' W 117°14'0 0.0
2014-Nov-10 21:31N 32°42' W 117°14'0 0.0
2014-Nov-10 20:31N 32°42' W 117°14'0 0.0
2014-Nov-10 17:31N 32°42' W 117°14'0 0.0
2014-Nov-10 16:25N 32°42' W 117°14'0 0.0
2014-Nov-10 15:25N 32°42' W 117°14'0 0.0
2014-Nov-10 14:31N 32°42' W 117°14'0 0.0
2014-Nov-10 13:31N 32°42' W 117°14'0 0.0
2014-Nov-10 12:31N 32°42' W 117°14'0 0.0
2014-Nov-10 11:31N 32°42' W 117°14'0 0.0
2014-Nov-10 10:25N 32°42' W 117°14'0 0.0
2014-Nov-10 09:31N 32°42' W 117°14'0 0.0
2014-Nov-10 08:31N 32°42' W 117°14'0 0.0
2014-Nov-10 07:25N 32°42' W 117°14'0 0.0
2014-Nov-10 06:31N 32°42' W 117°14'0 0.0
2014-Nov-10 05:31N 32°42' W 117°14'0 0.0
2014-Nov-10 04:31N 32°42' W 117°14'0 0.0
2014-Nov-10 03:25N 32°42' W 117°14'0 0.0
2014-Nov-09 23:19N 32°42' W 117°14'0 0.0
2014-Nov-09 22:31N 32°42' W 117°14'0 0.0
2014-Nov-09 21:31N 32°42' W 117°14'0 0.0
2014-Nov-09 20:31N 32°42' W 117°14'0 0.0
2014-Nov-09 19:31N 32°42' W 117°14'0 0.0
2014-Nov-09 18:25N 32°42' W 117°14'0 0.0
2014-Nov-09 17:25N 32°42' W 117°14'0 0.0
2014-Nov-09 16:31N 32°42' W 117°14'0 0.0
2014-Nov-09 15:31N 32°42' W 117°14'1 0.7
2014-Nov-09 14:33N 32°41' W 117°14'5 4.8
2014-Nov-09 13:33N 32°37' W 117°16'8 8.4
2014-Nov-09 12:33N 32°38' W 117°26'8 8.4
2014-Nov-09 11:33N 32°39' W 117°36'7 7.1
2014-Nov-09 10:33N 32°42' W 117°43'8 8.1
2014-Nov-09 09:33N 32°48' W 117°50'8 8.4
2014-Nov-09 08:33N 32°56' W 117°54'4 3.7
2014-Nov-09 07:33N 32°59' W 117°56'1 0.6
2014-Nov-09 06:33N 32°59' W 117°56'1 0.5
2014-Nov-09 05:33N 32°60' W 117°56'0 0.5
2014-Nov-09 04:33N 33°00' W 117°56'1 0.8
2014-Nov-09 03:33N 33°01' W 117°56'1 0.9
2014-Nov-09 02:33N 33°02' W 117°57'1 1.0
2014-Nov-09 01:33N 33°03' W 117°57'1 0.9
2014-Nov-09 00:33N 33°04' W 117°57'7 7.2
2014-Nov-08 23:34N 33°10' W 118°01'1413.7
2014-Nov-08 22:33N 33°23' W 118°08'1413.7
2014-Nov-08 21:33N 33°36' W 118°13'9 8.8
2014-Nov-08 20:33N 33°44' W 118°16'0 0.2
2014-Nov-08 19:32N 33°44' W 118°16'0 0.0
2014-Nov-08 18:32N 33°44' W 118°16'0 0.0
2014-Nov-08 17:32N 33°44' W 118°16'0 0.0
2014-Nov-08 16:32N 33°44' W 118°16'0 0.0
2014-Nov-08 15:32N 33°44' W 118°16'0 0.0
2014-Nov-08 14:32N 33°44' W 118°16'0 0.0
2014-Nov-08 13:32N 33°44' W 118°16'0 0.0
2014-Nov-08 12:32N 33°44' W 118°16'0 0.0
2014-Nov-08 11:32N 33°44' W 118°16'0 0.0
2014-Nov-08 10:32N 33°44' W 118°16'0 0.0
2014-Nov-08 09:32N 33°44' W 118°16'0 0.0
2014-Nov-08 08:32N 33°44' W 118°16'0 0.0
2014-Nov-08 07:32N 33°44' W 118°16'0 0.0
2014-Nov-08 03:32N 33°44' W 118°16'0 0.0
2014-Nov-08 01:20N 33°44' W 118°16'0 0.0
2014-Nov-08 00:32N 33°44' W 118°16'0 0.0
2014-Nov-07 15:32N 33°44' W 118°16'0 0.0
2014-Nov-07 14:32N 33°44' W 118°16'1 1.5
2014-Nov-07 13:34N 33°43' W 118°15'5 5.4
2014-Nov-07 12:34N 33°44' W 118°09'0 0.1
2014-Nov-07 11:33N 33°44' W 118°09'0 0.1
2014-Nov-07 10:33N 33°44' W 118°09'0 0.0
2014-Nov-07 09:33N 33°44' W 118°09'0 0.0
2014-Nov-07 08:33N 33°44' W 118°09'0 0.0
2014-Nov-07 07:33N 33°44' W 118°09'0 0.1
2014-Nov-07 06:33N 33°44' W 118°09'0 0.1
2014-Nov-07 05:33N 33°44' W 118°09'0 0.0
2014-Nov-07 04:33N 33°44' W 118°09'0 0.2
2014-Nov-07 03:33N 33°44' W 118°09'0 0.0
2014-Nov-07 02:33N 33°44' W 118°09'0 0.0
2014-Nov-07 01:33N 33°44' W 118°09'0 0.1
2014-Nov-07 00:33N 33°44' W 118°09'0 0.0
2014-Nov-06 23:33N 33°44' W 118°09'0 0.0
2014-Nov-06 22:33N 33°44' W 118°09'0 0.0
2014-Nov-06 21:33N 33°44' W 118°09'0 0.0
2014-Nov-06 20:33N 33°44' W 118°09'0 0.0
2014-Nov-06 19:33N 33°44' W 118°09'0 0.0
2014-Nov-06 18:33N 33°44' W 118°09'0 0.1
2014-Nov-06 17:33N 33°44' W 118°09'0 0.1
2014-Nov-06 16:33N 33°44' W 118°09'0 0.0
2014-Nov-06 15:33N 33°44' W 118°09'0 0.0
2014-Nov-06 14:33N 33°44' W 118°09'0 0.1
2014-Nov-06 13:33N 33°44' W 118°09'0 0.0
2014-Nov-06 12:33N 33°44' W 118°09'0 0.0
2014-Nov-06 11:33N 33°44' W 118°09'0 0.0
2014-Nov-06 10:33N 33°44' W 118°09'0 0.0
2014-Nov-06 09:33N 33°44' W 118°09'0 0.0
2014-Nov-06 08:33N 33°44' W 118°09'0 0.0
2014-Nov-06 07:33N 33°44' W 118°09'0 0.1
2014-Nov-06 06:33N 33°44' W 118°09'0 0.1
2014-Nov-06 05:33N 33°44' W 118°09'0 0.1
2014-Nov-06 04:33N 33°44' W 118°09'0 0.1
2014-Nov-06 03:33N 33°44' W 118°09'0 0.0
2014-Nov-06 02:33N 33°44' W 118°09'0 0.1
2014-Nov-06 01:33N 33°44' W 118°09'0 0.0
2014-Nov-06 00:33N 33°44' W 118°09'0 0.0
2014-Nov-05 23:33N 33°44' W 118°09'0 0.1
2014-Nov-05 22:33N 33°44' W 118°09'0 0.0
2014-Nov-05 21:33N 33°44' W 118°09'0 0.0
2014-Nov-05 20:33N 33°44' W 118°09'0 0.1
2014-Nov-05 19:33N 33°44' W 118°09'0 0.0
2014-Nov-05 18:33N 33°44' W 118°09'0 0.1
2014-Nov-05 17:33N 33°44' W 118°09'0 0.1
2014-Nov-05 16:33N 33°44' W 118°09'0 0.1
2014-Nov-05 15:33N 33°44' W 118°09'0 0.0
2014-Nov-05 14:33N 33°44' W 118°09'0 0.1
2014-Nov-05 13:33N 33°44' W 118°09'0 0.0
2014-Nov-05 12:33N 33°44' W 118°09'0 0.1
2014-Nov-05 11:33N 33°44' W 118°09'0 0.1
2014-Nov-05 10:33N 33°44' W 118°09'0 0.0
2014-Nov-05 09:33N 33°44' W 118°09'0 0.0
2014-Nov-05 08:30N 33°44' W 118°09'0 0.1
2014-Nov-05 07:33N 33°44' W 118°09'0 0.1
2014-Nov-05 06:33N 33°44' W 118°09'0 0.1
2014-Nov-05 05:33N 33°44' W 118°09'0 0.0
2014-Nov-05 04:33N 33°44' W 118°09'0 0.1
2014-Nov-05 03:33N 33°44' W 118°09'0 0.1
2014-Nov-05 02:33N 33°44' W 118°09'0 0.0
2014-Nov-05 01:33N 33°44' W 118°09'0 0.0
2014-Nov-05 00:30N 33°44' W 118°09'0 0.1
2014-Nov-04 23:33N 33°44' W 118°09'0 0.0
2014-Nov-04 22:33N 33°44' W 118°09'0 0.1
2014-Nov-04 21:33N 33°44' W 118°09'0 0.1
2014-Nov-04 20:33N 33°44' W 118°09'0 0.1
2014-Nov-04 19:33N 33°44' W 118°09'0 0.1
2014-Nov-04 18:33N 33°44' W 118°09'0 0.1
2014-Nov-04 17:30N 33°44' W 118°09'0 0.1
2014-Nov-04 16:33N 33°44' W 118°09'0 0.1
2014-Nov-04 15:33N 33°44' W 118°09'0 0.0
2014-Nov-04 14:33N 33°44' W 118°09'0 0.1
2014-Nov-04 13:33N 33°44' W 118°09'0 0.0
2014-Nov-04 12:33N 33°44' W 118°09'0 0.0
2014-Nov-04 11:33N 33°44' W 118°09'0 0.1
2014-Nov-04 10:33N 33°44' W 118°09'0 0.1
2014-Nov-04 09:33N 33°44' W 118°09'0 0.0
2014-Nov-04 08:33N 33°44' W 118°09'0 0.0
2014-Nov-04 07:33N 33°44' W 118°09'0 0.0
2014-Nov-04 06:33N 33°44' W 118°09'0 0.0
2014-Nov-04 05:33N 33°44' W 118°09'0 0.1
2014-Nov-04 04:33N 33°44' W 118°09'0 0.2
2014-Nov-04 03:33N 33°44' W 118°09'0 0.0
2014-Nov-04 02:33N 33°44' W 118°09'0 0.0
2014-Nov-04 01:33N 33°44' W 118°09'0 0.0
2014-Nov-04 00:33N 33°44' W 118°09'0 0.1
2014-Nov-03 23:33N 33°44' W 118°09'0 0.1
2014-Nov-03 22:33N 33°44' W 118°09'0 0.0
2014-Nov-03 21:33N 33°44' W 118°09'0 0.0
2014-Nov-03 20:33N 33°44' W 118°09'0 0.1
2014-Nov-03 19:33N 33°44' W 118°09'0 0.0
2014-Nov-03 19:06N 33°44' W 118°09'0 0.1
2014-Nov-03 18:33N 33°44' W 118°09'0 0.0
2014-Nov-03 18:12N 33°44' W 118°09'0 0.0
2014-Nov-03 17:48N 33°44' W 118°09'0 0.0
2014-Nov-03 17:30N 33°44' W 118°09'0 0.0
2014-Nov-03 16:33N 33°44' W 118°09'0 0.1
2014-Nov-03 14:33N 33°44' W 118°09'0 0.1
2014-Nov-03 13:33N 33°44' W 118°09'0 0.0
2014-Nov-03 12:33N 33°44' W 118°09'0 0.0
2014-Nov-03 11:33N 33°44' W 118°09'0 0.1
2014-Nov-03 10:33N 33°44' W 118°09'0 0.0
2014-Nov-03 09:30N 33°44' W 118°09'0 0.1
2014-Nov-03 08:33N 33°44' W 118°09'0 0.1
2014-Nov-03 07:33N 33°44' W 118°09'0 0.0
2014-Nov-03 06:33N 33°44' W 118°09'0 0.1
2014-Nov-03 05:33N 33°44' W 118°09'0 0.1
2014-Nov-03 04:33N 33°44' W 118°09'0 0.0
2014-Nov-03 03:33N 33°44' W 118°09'0 0.0
2014-Nov-03 01:30N 33°44' W 118°09'0 0.0
2014-Nov-03 00:30N 33°44' W 118°09'0 0.1
2014-Nov-02 23:33N 33°44' W 118°09'0 0.0
2014-Nov-02 22:33N 33°44' W 118°09'0 0.1
2014-Nov-02 21:33N 33°44' W 118°09'0 0.1
2014-Nov-02 20:33N 33°44' W 118°09'0 0.0
2014-Nov-02 19:33N 33°44' W 118°09'0 0.1
2014-Nov-02 18:33N 33°44' W 118°09'0 0.0
2014-Nov-02 17:33N 33°44' W 118°09'0 0.1
2014-Nov-02 16:33N 33°44' W 118°09'0 0.0
2014-Nov-02 15:30N 33°44' W 118°09'0 0.1
2014-Nov-02 14:33N 33°44' W 118°09'0 0.0
2014-Nov-02 13:33N 33°44' W 118°09'0 0.0
2014-Nov-02 12:33N 33°44' W 118°09'0 0.0
2014-Nov-02 11:33N 33°44' W 118°09'0 0.1
2014-Nov-02 10:33N 33°44' W 118°09'0 0.1
2014-Nov-02 09:33N 33°44' W 118°09'0 0.1
2014-Nov-02 08:33N 33°44' W 118°09'0 0.1
2014-Nov-02 07:33N 33°44' W 118°09'0 0.1
2014-Nov-02 06:33N 33°44' W 118°09'0 0.0
2014-Nov-02 05:33N 33°44' W 118°09'0 0.1
2014-Nov-02 04:33N 33°44' W 118°09'0 0.0
2014-Nov-02 03:33N 33°44' W 118°09'0 0.0
2014-Nov-02 02:33N 33°44' W 118°09'0 0.0
2014-Nov-02 01:33N 33°44' W 118°09'0 0.0
2014-Nov-02 00:33N 33°44' W 118°09'0 0.0
2014-Nov-01 23:33N 33°44' W 118°09'0 0.0
2014-Nov-01 22:33N 33°44' W 118°09'0 0.0
2014-Nov-01 21:33N 33°44' W 118°09'0 0.0
2014-Nov-01 20:33N 33°44' W 118°09'0 0.1
2014-Nov-01 19:33N 33°44' W 118°09'0 0.0
2014-Nov-01 18:33N 33°44' W 118°09'  

Dump ship's entire track history